Time,TemperatureF,DewpointF,PressureIn,WindDirection,WindDirectionDegrees,WindSpeedMPH,WindSpeedGustMPH,Humidity,HourlyPrecipIn,Conditions,Clouds,dailyrainin,SoftwareType,DateUTC
2013-03-29 00:03:00,38.0,25.0,-100.00,West,270,1.0,2.0,57,0.00,,,-99.99,,2013-03-29 04:03:00,
2013-03-29 00:13:00,38.0,24.0,-100.00,West,265,0.0,1.0,57,0.00,,,-99.99,,2013-03-29 04:13:00,
2013-03-29 00:22:00,38.0,24.0,-100.00,West,275,0.0,1.0,57,0.00,,,-99.99,,2013-03-29 04:22:00,
2013-03-29 00:33:00,38.0,24.0,-100.00,West,275,0.0,1.0,57,0.00,,,-99.99,,2013-03-29 04:33:00,
2013-03-29 00:43:00,38.0,24.0,-100.00,West,275,0.0,1.0,57,0.00,,,-99.99,,2013-03-29 04:43:00,
2013-03-29 00:52:00,37.0,25.0,-100.00,West,270,0.0,0.0,59,0.00,,,-99.99,,2013-03-29 04:52:00,
2013-03-29 01:03:00,37.0,25.0,-100.00,West,270,0.0,1.0,60,0.00,,,-99.99,,2013-03-29 05:03:00,
2013-03-29 01:12:00,36.0,25.0,-100.00,WSW,250,1.0,2.0,62,0.00,,,-99.99,,2013-03-29 05:12:00,
2013-03-29 01:23:00,37.0,25.0,-100.00,WSW,250,2.0,3.0,61,0.00,,,-99.99,,2013-03-29 05:23:00,
2013-03-29 01:33:00,37.0,25.0,-100.00,West,280,2.0,5.0,61,0.00,,,-99.99,,2013-03-29 05:33:00,
2013-03-29 01:43:00,37.0,25.0,-100.00,West,275,3.0,4.0,63,0.00,,,-99.99,,2013-03-29 05:43:00,
2013-03-29 01:52:00,36.0,25.0,-100.00,West,275,2.0,3.0,64,0.00,,,-99.99,,2013-03-29 05:52:00,
2013-03-29 02:02:00,36.0,26.0,-100.00,West,275,2.0,3.0,65,0.00,,,-99.99,,2013-03-29 06:02:00,
2013-03-29 02:12:00,36.0,26.0,-100.00,West,275,3.0,4.0,66,0.00,,,-99.99,,2013-03-29 06:12:00,
2013-03-29 02:23:00,36.0,26.0,-100.00,West,265,3.0,6.0,66,0.00,,,-99.99,,2013-03-29 06:23:00,
2013-03-29 02:32:00,36.0,26.0,-100.00,West,275,3.0,4.0,67,0.00,,,-99.99,,2013-03-29 06:32:00,
2013-03-29 02:42:00,36.0,26.0,-100.00,West,275,4.0,5.0,68,0.00,,,-99.99,,2013-03-29 06:42:00,
2013-03-29 02:52:00,36.0,27.0,-100.00,West,270,3.0,6.0,68,0.00,,,-99.99,,2013-03-29 06:52:00,
2013-03-29 03:03:00,36.0,26.0,-100.00,West,260,2.0,4.0,68,0.00,,,-99.99,,2013-03-29 07:03:00,
2013-03-29 03:12:00,36.0,26.0,-100.00,West,270,2.0,4.0,67,0.00,,,-99.99,,2013-03-29 07:12:00,
2013-03-29 03:22:00,36.0,26.0,-100.00,West,265,3.0,4.0,67,0.00,,,-99.99,,2013-03-29 07:22:00,
2013-03-29 03:32:00,36.0,27.0,-100.00,West,275,4.0,6.0,67,0.00,,,-99.99,,2013-03-29 07:32:00,
2013-03-29 03:42:00,36.0,27.0,-100.00,West,260,4.0,5.0,67,0.00,,,-99.99,,2013-03-29 07:42:00,
2013-03-29 03:52:00,37.0,26.0,-100.00,West,260,4.0,5.0,66,0.00,,,-99.99,,2013-03-29 07:52:00,
2013-03-29 04:02:00,37.0,26.0,-100.00,West,260,3.0,6.0,66,0.00,,,-99.99,,2013-03-29 08:02:00,
2013-03-29 04:12:00,37.0,26.0,-100.00,West,265,3.0,5.0,65,0.00,,,-99.99,,2013-03-29 08:12:00,
2013-03-29 04:22:00,37.0,26.0,-100.00,West,265,1.0,3.0,65,0.00,,,-99.99,,2013-03-29 08:22:00,
2013-03-29 04:32:00,37.0,26.0,-100.00,West,260,1.0,3.0,65,0.00,,,-99.99,,2013-03-29 08:32:00,
2013-03-29 04:42:00,36.0,26.0,-100.00,WSW,255,2.0,2.0,66,0.00,,,-99.99,,2013-03-29 08:42:00,
2013-03-29 04:52:00,37.0,26.0,-100.00,WSW,255,2.0,4.0,65,0.00,,,-99.99,,2013-03-29 08:52:00,
2013-03-29 05:02:00,37.0,26.0,-100.00,WSW,255,2.0,4.0,65,0.00,,,-99.99,,2013-03-29 09:02:00,
2013-03-29 05:13:00,36.0,26.0,-100.00,WSW,255,2.0,5.0,65,0.00,,,-99.99,,2013-03-29 09:13:00,
2013-03-29 05:22:00,36.0,26.0,-100.00,West,260,3.0,4.0,65,0.00,,,-99.99,,2013-03-29 09:22:00,
2013-03-29 05:33:00,36.0,26.0,-100.00,West,260,3.0,4.0,66,0.00,,,-99.99,,2013-03-29 09:33:00,
2013-03-29 05:42:00,36.0,26.0,-100.00,West,265,3.0,5.0,67,0.00,,,-99.99,,2013-03-29 09:42:00,
2013-03-29 05:52:00,36.0,26.0,-100.00,West,260,2.0,6.0,66,0.00,,,-99.99,,2013-03-29 09:52:00,
2013-03-29 06:03:00,36.0,26.0,-100.00,West,265,3.0,6.0,66,0.00,,,-99.99,,2013-03-29 10:03:00,
2013-03-29 06:12:00,35.0,26.0,-100.00,West,265,3.0,4.0,66,0.00,,,-99.99,,2013-03-29 10:12:00,
2013-03-29 06:23:00,35.0,26.0,-100.00,West,270,3.0,5.0,68,0.00,,,-99.99,,2013-03-29 10:23:00,
2013-03-29 06:33:00,35.0,26.0,-100.00,West,260,4.0,6.0,67,0.00,,,-99.99,,2013-03-29 10:33:00,
2013-03-29 06:42:00,35.0,26.0,-100.00,West,270,3.0,6.0,69,0.00,,,-99.99,,2013-03-29 10:42:00,
2013-03-29 06:52:00,34.0,26.0,-100.00,West,270,4.0,6.0,70,0.00,,,-99.99,,2013-03-29 10:52:00,
2013-03-29 07:03:00,34.0,25.0,-100.00,West,265,4.0,6.0,69,0.00,,,-99.99,,2013-03-29 11:03:00,
2013-03-29 07:12:00,34.0,25.0,-100.00,West,270,4.0,6.0,70,0.00,,,-99.99,,2013-03-29 11:12:00,
2013-03-29 07:23:00,33.0,25.0,-100.00,West,275,4.0,6.0,71,0.00,,,-99.99,,2013-03-29 11:23:00,
2013-03-29 07:33:00,33.0,25.0,-100.00,West,275,4.0,6.0,71,0.00,,,-99.99,,2013-03-29 11:33:00,
2013-03-29 07:42:00,33.0,25.0,-100.00,West,275,3.0,6.0,72,0.00,,,-99.99,,2013-03-29 11:42:00,
2013-03-29 07:52:00,33.0,25.0,-100.00,West,275,4.0,5.0,72,0.00,,,-99.99,,2013-03-29 11:52:00,
2013-03-29 08:03:00,33.0,25.0,-100.00,West,275,4.0,6.0,72,0.00,,,-99.99,,2013-03-29 12:03:00,
2013-03-29 08:12:00,33.0,25.0,-100.00,WNW,285,4.0,6.0,73,0.00,,,-99.99,,2013-03-29 12:12:00,
2013-03-29 08:22:00,32.0,25.0,-100.00,West,275,4.0,6.0,74,0.00,,,-99.99,,2013-03-29 12:22:00,
2013-03-29 08:32:00,33.0,25.0,-100.00,West,280,5.0,6.0,74,0.00,,,-99.99,,2013-03-29 12:32:00,
2013-03-29 08:42:00,33.0,26.0,-100.00,West,275,5.0,6.0,72,0.00,,,-99.99,,2013-03-29 12:42:00,
2013-03-29 08:52:00,34.0,26.0,-100.00,West,275,4.0,7.0,71,0.00,,,-99.99,,2013-03-29 12:52:00,
2013-03-29 09:03:00,35.0,26.0,-100.00,West,280,6.0,7.0,69,0.00,,,-99.99,,2013-03-29 13:03:00,
2013-03-29 09:12:00,35.0,26.0,-100.00,West,275,5.0,9.0,68,0.00,,,-99.99,,2013-03-29 13:12:00,
2013-03-29 09:22:00,36.0,26.0,-100.00,WNW,290,4.0,7.0,66,0.00,,,-99.99,,2013-03-29 13:22:00,
2013-03-29 09:33:00,37.0,27.0,-100.00,West,280,5.0,9.0,65,0.00,,,-99.99,,2013-03-29 13:33:00,
2013-03-29 09:42:00,38.0,27.0,-100.00,NW,305,6.0,9.0,62,0.00,,,-99.99,,2013-03-29 13:42:00,
2013-03-29 09:52:00,39.0,27.0,-100.00,NW,310,6.0,9.0,61,0.00,,,-99.99,,2013-03-29 13:52:00,
2013-03-29 10:03:00,39.0,27.0,-100.00,WNW,290,5.0,12.0,60,0.00,,,-99.99,,2013-03-29 14:03:00,
2013-03-29 10:12:00,40.0,27.0,-100.00,WNW,300,4.0,10.0,59,0.00,,,-99.99,,2013-03-29 14:12:00,
2013-03-29 10:22:00,41.0,26.0,-100.00,NW,310,6.0,9.0,56,0.00,,,-99.99,,2013-03-29 14:22:00,
2013-03-29 10:33:00,41.0,26.0,-100.00,NNW,330,6.0,9.0,56,0.00,,,-99.99,,2013-03-29 14:33:00,
2013-03-29 10:42:00,41.0,27.0,-100.00,NW,320,3.0,9.0,56,0.00,,,-99.99,,2013-03-29 14:42:00,
2013-03-29 10:52:00,42.0,26.0,-100.00,West,275,3.0,9.0,53,0.00,,,-99.99,,2013-03-29 14:52:00,
2013-03-29 11:02:00,42.0,26.0,-100.00,NNW,335,6.0,9.0,53,0.00,,,-99.99,,2013-03-29 15:02:00,
2013-03-29 11:12:00,44.0,28.0,-100.00,WNW,285,4.0,9.0,53,0.00,,,-99.99,,2013-03-29 15:12:00,
2013-03-29 11:22:00,45.0,27.0,-100.00,NW,310,2.0,11.0,50,0.00,,,-99.99,,2013-03-29 15:22:00,
2013-03-29 11:33:00,45.0,26.0,-100.00,NW,305,7.0,11.0,46,0.00,,,-99.99,,2013-03-29 15:33:00,
2013-03-29 11:43:00,46.0,26.0,-100.00,North,350,4.0,10.0,46,0.00,,,-99.99,,2013-03-29 15:43:00,
2013-03-29 11:52:00,46.0,26.0,-100.00,NW,320,6.0,12.0,44,0.00,,,-99.99,,2013-03-29 15:52:00,
2013-03-29 12:03:00,47.0,27.0,-100.00,West,275,3.0,11.0,45,0.00,,,-99.99,,2013-03-29 16:03:00,
2013-03-29 12:13:00,46.0,24.0,-100.00,NW,320,8.0,14.0,41,0.00,,,-99.99,,2013-03-29 16:13:00,
2013-03-29 12:23:00,47.0,24.0,-100.00,NW,325,7.0,15.0,40,0.00,,,-99.99,,2013-03-29 16:23:00,
2013-03-29 12:33:00,46.0,24.0,-100.00,NW,320,7.0,12.0,41,0.00,,,-99.99,,2013-03-29 16:33:00,
2013-03-29 12:42:00,47.0,23.0,-100.00,West,260,6.0,12.0,38,0.00,,,-99.99,,2013-03-29 16:42:00,
2013-03-29 12:52:00,46.0,21.0,-100.00,West,275,9.0,15.0,37,0.00,,,-99.99,,2013-03-29 16:52:00,
2013-03-29 13:03:00,47.0,22.0,-100.00,NW,320,4.0,15.0,37,0.00,,,-99.99,,2013-03-29 17:03:00,
2013-03-29 13:12:00,47.0,20.0,-100.00,NW,320,9.0,19.0,33,0.00,,,-99.99,,2013-03-29 17:12:00,
2013-03-29 13:22:00,48.0,20.0,-100.00,WNW,285,7.0,12.0,33,0.00,,,-99.99,,2013-03-29 17:22:00,
2013-03-29 13:33:00,49.0,22.0,-100.00,SW,220,7.0,16.0,33,0.00,,,-99.99,,2013-03-29 17:33:00,
2013-03-29 13:43:00,49.0,22.0,-100.00,NW,310,9.0,16.0,35,0.00,,,-99.99,,2013-03-29 17:43:00,
2013-03-29 13:52:00,47.0,22.0,-100.00,NW,305,11.0,19.0,37,0.00,,,-99.99,,2013-03-29 17:52:00,
2013-03-29 14:02:00,48.0,21.0,-100.00,WNW,300,7.0,16.0,34,0.00,,,-99.99,,2013-03-29 18:02:00,
2013-03-29 14:12:00,50.0,20.0,-100.00,West,270,5.0,16.0,30,0.00,,,-99.99,,2013-03-29 18:12:00,
2013-03-29 14:23:00,49.0,19.0,-100.00,West,270,13.0,19.0,29,0.00,,,-99.99,,2013-03-29 18:23:00,
2013-03-29 14:32:00,49.0,20.0,-100.00,NW,305,7.0,17.0,31,0.00,,,-99.99,,2013-03-29 18:32:00,
2013-03-29 14:42:00,50.0,18.0,-100.00,West,270,7.0,13.0,27,0.00,,,-99.99,,2013-03-29 18:42:00,
2013-03-29 14:52:00,51.0,21.0,-100.00,WSW,255,12.0,18.0,30,0.00,,,-99.99,,2013-03-29 18:52:00,
2013-03-29 15:03:00,49.0,20.0,-100.00,West,265,13.0,17.0,31,0.00,,,-99.99,,2013-03-29 19:03:00,
2013-03-29 15:12:00,49.0,19.0,-100.00,WNW,290,11.0,17.0,29,0.00,,,-99.99,,2013-03-29 19:12:00,
2013-03-29 15:23:00,50.0,21.0,-100.00,NW,325,7.0,14.0,31,0.00,,,-99.99,,2013-03-29 19:23:00,
2013-03-29 15:33:00,50.0,18.0,-100.00,SW,230,8.0,17.0,27,0.00,,,-99.99,,2013-03-29 19:33:00,
2013-03-29 15:42:00,50.0,20.0,-100.00,West,280,12.0,17.0,30,0.00,,,-99.99,,2013-03-29 19:42:00,
2013-03-29 15:52:00,50.0,21.0,-100.00,WNW,285,9.0,16.0,31,0.00,,,-99.99,,2013-03-29 19:52:00,
2013-03-29 16:03:00,49.0,20.0,-100.00,NW,310,6.0,16.0,30,0.00,,,-99.99,,2013-03-29 20:03:00,
2013-03-29 16:12:00,50.0,21.0,-100.00,NW,305,7.0,14.0,32,0.00,,,-99.99,,2013-03-29 20:12:00,
2013-03-29 16:22:00,51.0,23.0,-100.00,WNW,285,9.0,19.0,32,0.00,,,-99.99,,2013-03-29 20:22:00,
2013-03-29 16:33:00,49.0,20.0,-100.00,West,270,6.0,19.0,31,0.00,,,-99.99,,2013-03-29 20:33:00,
2013-03-29 16:42:00,50.0,22.0,-100.00,WNW,300,11.0,16.0,32,0.00,,,-99.99,,2013-03-29 20:42:00,
2013-03-29 16:52:00,50.0,22.0,-100.00,WNW,290,11.0,17.0,32,0.00,,,-99.99,,2013-03-29 20:52:00,
2013-03-29 17:02:00,51.0,22.0,-100.00,WNW,285,8.0,12.0,31,0.00,,,-99.99,,2013-03-29 21:02:00,
2013-03-29 17:12:00,51.0,20.0,-100.00,WNW,300,9.0,19.0,29,0.00,,,-99.99,,2013-03-29 21:12:00,
2013-03-29 17:22:00,48.0,20.0,-100.00,WNW,300,10.0,17.0,32,0.00,,,-99.99,,2013-03-29 21:22:00,
2013-03-29 17:33:00,49.0,20.0,-100.00,West,280,11.0,17.0,31,0.00,,,-99.99,,2013-03-29 21:33:00,
2013-03-29 17:42:00,48.0,21.0,-100.00,WNW,300,7.0,17.0,33,0.00,,,-99.99,,2013-03-29 21:42:00,
2013-03-29 17:53:00,49.0,20.0,-100.00,NW,315,11.0,15.0,32,0.00,,,-99.99,,2013-03-29 21:53:00,
2013-03-29 18:03:00,49.0,21.0,-100.00,NNW,335,9.0,12.0,33,0.00,,,-99.99,,2013-03-29 22:03:00,
2013-03-29 18:12:00,48.0,23.0,-100.00,NW,310,7.0,14.0,36,0.00,,,-99.99,,2013-03-29 22:12:00,
2013-03-29 18:23:00,48.0,22.0,-100.00,WNW,285,6.0,16.0,35,0.00,,,-99.99,,2013-03-29 22:23:00,
2013-03-29 18:33:00,48.0,21.0,-100.00,NW,310,9.0,12.0,33,0.00,,,-99.99,,2013-03-29 22:33:00,
2013-03-29 18:42:00,48.0,22.0,-100.00,WNW,300,7.0,12.0,34,0.00,,,-99.99,,2013-03-29 22:42:00,
2013-03-29 18:53:00,48.0,23.0,-100.00,NW,320,9.0,12.0,36,0.00,,,-99.99,,2013-03-29 22:53:00,
2013-03-29 19:03:00,47.0,22.0,-100.00,WNW,300,9.0,17.0,37,0.00,,,-99.99,,2013-03-29 23:03:00,
2013-03-29 19:12:00,47.0,22.0,-100.00,NW,325,8.0,14.0,36,0.00,,,-99.99,,2013-03-29 23:12:00,
2013-03-29 19:22:00,47.0,23.0,-100.00,NW,320,7.0,15.0,38,0.00,,,-99.99,,2013-03-29 23:22:00,
2013-03-29 19:32:00,46.0,21.0,-100.00,NW,315,10.0,15.0,37,0.00,,,-99.99,,2013-03-29 23:32:00,
2013-03-29 19:42:00,46.0,22.0,-100.00,NNW,330,7.0,12.0,38,0.00,,,-99.99,,2013-03-29 23:42:00,
2013-03-29 19:52:00,45.0,23.0,-100.00,NW,310,7.0,12.0,41,0.00,,,-99.99,,2013-03-29 23:52:00,
2013-03-29 20:03:00,45.0,22.0,-100.00,NW,325,6.0,11.0,39,0.00,,,-99.99,,2013-03-30 00:03:00,
2013-03-29 20:12:00,44.0,22.0,-100.00,NNW,330,6.0,10.0,40,0.00,,,-99.99,,2013-03-30 00:12:00,
2013-03-29 20:22:00,43.0,22.0,-100.00,NW,320,5.0,8.0,43,0.00,,,-99.99,,2013-03-30 00:22:00,
2013-03-29 20:32:00,43.0,22.0,-100.00,NW,325,4.0,8.0,42,0.00,,,-99.99,,2013-03-30 00:32:00,
2013-03-29 20:42:00,43.0,22.0,-100.00,NNW,335,4.0,7.0,42,0.00,,,-99.99,,2013-03-30 00:42:00,
2013-03-29 20:52:00,42.0,22.0,-100.00,NW,325,3.0,7.0,43,0.00,,,-99.99,,2013-03-30 00:52:00,
2013-03-29 21:03:00,42.0,22.0,-100.00,NNW,345,4.0,7.0,43,0.00,,,-99.99,,2013-03-30 01:03:00,
2013-03-29 21:12:00,42.0,21.0,-100.00,NNW,345,4.0,6.0,42,0.00,,,-99.99,,2013-03-30 01:12:00,
2013-03-29 21:22:00,42.0,21.0,-100.00,North,350,4.0,6.0,42,0.00,,,-99.99,,2013-03-30 01:22:00,
2013-03-29 21:33:00,42.0,21.0,-100.00,North,0,2.0,6.0,43,0.00,,,-99.99,,2013-03-30 01:33:00,
2013-03-29 21:43:00,42.0,21.0,-100.00,NNW,345,3.0,6.0,43,0.00,,,-99.99,,2013-03-30 01:43:00,
2013-03-29 21:52:00,41.0,21.0,-100.00,NNW,340,4.0,7.0,43,0.00,,,-99.99,,2013-03-30 01:52:00,
2013-03-29 22:03:00,41.0,21.0,-100.00,North,0,2.0,5.0,43,0.00,,,-99.99,,2013-03-30 02:03:00,
2013-03-29 22:12:00,41.0,21.0,-100.00,NNE,20,1.0,5.0,44,0.00,,,-99.99,,2013-03-30 02:12:00,
2013-03-29 22:22:00,40.0,21.0,-100.00,ENE,60,0.0,3.0,46,0.00,,,-99.99,,2013-03-30 02:22:00,
2013-03-29 22:33:00,40.0,21.0,-100.00,NE,45,0.0,2.0,46,0.00,,,-99.99,,2013-03-30 02:33:00,
2013-03-29 22:42:00,40.0,21.0,-100.00,NE,40,1.0,2.0,47,0.00,,,-99.99,,2013-03-30 02:42:00,
2013-03-29 22:52:00,39.0,22.0,-100.00,NNE,25,0.0,2.0,48,0.00,,,-99.99,,2013-03-30 02:52:00,
2013-03-29 23:03:00,39.0,21.0,-100.00,NNE,30,1.0,3.0,48,0.00,,,-99.99,,2013-03-30 03:03:00,
2013-03-29 23:12:00,39.0,21.0,-100.00,North,10,1.0,3.0,49,0.00,,,-99.99,,2013-03-30 03:12:00,
2013-03-29 23:22:00,39.0,21.0,-100.00,North,10,1.0,2.0,48,0.00,,,-99.99,,2013-03-30 03:22:00,
2013-03-29 23:33:00,38.0,21.0,-100.00,NNE,25,0.0,4.0,49,0.00,,,-99.99,,2013-03-30 03:33:00,
2013-03-29 23:43:00,38.0,20.0,-100.00,North,0,0.0,2.0,47,0.00,,,-99.99,,2013-03-30 03:43:00,
2013-03-29 23:53:00,38.0,20.0,-100.00,NNE,25,0.0,2.0,48,0.00,,,-99.99,,2013-03-30 03:53:00,